createdAt,value
2023-04-16T00:00:44.992Z,90675.03
2023-04-16T00:03:48.407Z,90681.47
2023-04-16T00:06:51.818Z,90684.06
2023-04-16T00:09:54.920Z,90684.06
2023-04-16T00:12:58.071Z,90682.72
2023-04-16T00:16:01.234Z,90695.03
2023-04-16T00:19:04.340Z,90698.19
2023-04-16T00:22:07.482Z,90690.91
2023-04-16T00:25:10.788Z,90696.00
2023-04-16T00:28:13.946Z,90695.28
2023-04-16T00:31:17.176Z,90703.66
2023-04-16T00:34:20.443Z,90717.78
2023-04-16T00:37:23.561Z,90711.06
2023-04-16T00:40:29.881Z,90704.38
2023-04-16T00:43:33.192Z,90697.13
2023-04-16T00:46:37.934Z,90697.50
2023-04-16T00:49:41.068Z,90697.13
2023-04-16T00:52:44.614Z,90706.41
2023-04-16T00:55:47.811Z,90705.31
2023-04-16T00:58:51.383Z,90707.81
2023-04-16T01:01:54.715Z,90703.03
2023-04-16T01:04:58.067Z,90710.53
2023-04-16T01:08:04.256Z,90716.06
2023-04-16T01:11:07.995Z,90723.47
2023-04-16T01:14:11.310Z,90723.09
2023-04-16T01:17:14.415Z,90719.56
2023-04-16T01:20:17.760Z,90722.53
2023-04-16T01:23:21.186Z,90730.53
2023-04-16T01:26:24.374Z,90728.34
2023-04-16T01:29:27.968Z,90727.34
2023-04-16T01:32:33.625Z,90735.16
2023-04-16T01:35:36.960Z,90736.72
2023-04-16T01:38:40.215Z,90736.22
2023-04-16T01:41:43.899Z,90736.84
2023-04-16T01:44:48.832Z,90745.56
2023-04-16T01:47:51.985Z,90751.81
2023-04-16T01:50:55.307Z,90754.00
2023-04-16T01:53:59.038Z,90762.09
2023-04-16T01:57:02.492Z,90751.91
2023-04-16T02:00:07.015Z,90760.78
2023-04-16T02:03:21.374Z,90761.25
2023-04-16T02:06:24.885Z,90752.63
2023-04-16T02:09:28.432Z,90750.25
2023-04-16T02:12:31.864Z,90753.72
2023-04-16T02:15:35.088Z,90751.09
2023-04-16T02:18:38.216Z,90750.88
2023-04-16T02:21:42.389Z,90756.84
2023-04-16T02:24:45.574Z,90765.63
2023-04-16T02:27:50.818Z,90778.75
2023-04-16T02:31:14.262Z,90781.00
2023-04-16T02:34:20.928Z,90782.66
2023-04-16T02:37:26.512Z,90791.56
2023-04-16T02:40:29.927Z,90793.53
2023-04-16T02:43:33.164Z,90795.81
2023-04-16T02:46:36.332Z,90789.81
2023-04-16T02:49:39.532Z,90799.25
2023-04-16T02:52:42.888Z,90809.66
2023-04-16T02:55:56.684Z,90814.78
2023-04-16T02:58:59.899Z,90814.03
2023-04-16T03:02:03.245Z,90810.13
2023-04-16T03:05:07.053Z,90808.91
2023-04-16T03:08:10.810Z,90805.22
2023-04-16T03:11:14.082Z,90811.22
2023-04-16T03:14:17.408Z,90816.34
2023-04-16T03:17:20.721Z,90816.22
2023-04-16T03:20:24.608Z,90820.59
2023-04-16T03:23:29.499Z,90829.06
2023-04-16T03:26:32.645Z,90829.97
2023-04-16T03:29:41.215Z,90830.63
2023-04-16T03:32:45.375Z,90826.81
2023-04-16T03:35:56.711Z,90836.41
2023-04-16T03:39:01.945Z,90835.53
2023-04-16T03:42:05.206Z,90847.84
2023-04-16T03:45:10.174Z,90848.72
2023-04-16T03:48:14.814Z,90845.28
2023-04-16T03:51:18.329Z,90856.88
2023-04-16T03:54:22.811Z,90863.59
2023-04-16T03:57:34.510Z,90861.09
2023-04-16T04:00:44.202Z,90864.63
2023-04-16T04:03:50.678Z,90873.16
2023-04-16T04:06:54.062Z,90874.81
2023-04-16T04:09:57.568Z,90872.81
2023-04-16T04:13:01.728Z,90875.88
2023-04-16T04:16:06.089Z,90879.56
2023-04-16T04:19:09.845Z,90881.59
2023-04-16T04:22:13.409Z,90875.59
2023-04-16T04:25:18.210Z,90886.44
2023-04-16T04:28:21.616Z,90878.75
2023-04-16T04:31:24.994Z,90884.91
2023-04-16T04:34:28.308Z,90879.41
2023-04-16T04:37:34.492Z,90883.06
2023-04-16T04:40:45.075Z,90890.00
2023-04-16T04:43:49.093Z,90901.50
2023-04-16T04:46:53.217Z,90896.06
2023-04-16T04:49:56.536Z,90906.16
2023-04-16T04:52:59.786Z,90905.00
2023-04-16T04:56:12.404Z,90901.84
2023-04-16T04:59:17.225Z,90912.97
2023-04-16T05:02:20.924Z,90915.66
2023-04-16T05:05:24.245Z,90918.94
2023-04-16T05:08:27.738Z,90912.47
2023-04-16T05:11:31.434Z,90918.22
2023-04-16T05:14:34.874Z,90923.00
2023-04-16T05:17:38.057Z,90916.28
2023-04-16T05:20:41.599Z,90921.22
2023-04-16T05:23:45.008Z,90927.91
2023-04-16T05:26:48.184Z,90919.22
2023-04-16T05:29:51.436Z,90928.28
2023-04-16T05:32:54.706Z,90921.31
2023-04-16T05:35:58.000Z,90929.53
2023-04-16T05:39:01.223Z,90920.09
2023-04-16T05:42:04.544Z,90922.00
2023-04-16T05:45:11.408Z,90921.38
2023-04-16T05:48:14.806Z,90934.09
2023-04-16T05:51:18.435Z,90926.69
2023-04-16T05:54:21.819Z,90936.63
2023-04-16T05:57:25.133Z,90943.88
2023-04-16T06:00:28.861Z,90949.06
2023-04-16T06:03:32.069Z,90956.16
2023-04-16T06:06:35.796Z,90958.75
2023-04-16T06:09:39.108Z,90961.44
2023-04-16T06:12:42.337Z,90972.41
2023-04-16T06:15:45.639Z,90969.69
2023-04-16T06:18:48.995Z,90970.44
2023-04-16T06:21:52.343Z,90966.50
2023-04-16T06:24:55.605Z,90960.00
2023-04-16T06:27:58.823Z,90967.03
2023-04-16T06:31:02.287Z,90959.31
2023-04-16T06:34:05.445Z,90953.00
2023-04-16T06:37:10.627Z,90951.88
2023-04-16T06:40:14.168Z,90958.28
2023-04-16T06:43:18.718Z,90957.38
2023-04-16T06:46:21.956Z,90953.38
2023-04-16T06:49:25.286Z,90950.47
2023-04-16T06:52:29.689Z,90946.28
2023-04-16T06:55:32.878Z,90951.06
2023-04-16T06:58:36.168Z,90959.25
2023-04-16T07:01:39.299Z,90953.66
2023-04-16T07:04:42.525Z,90963.03
2023-04-16T07:07:45.814Z,90950.72
2023-04-16T07:10:48.984Z,90956.03
2023-04-16T07:13:53.875Z,90953.31
2023-04-16T07:16:56.744Z,90953.53
2023-04-16T07:19:59.980Z,90961.94
2023-04-16T07:23:03.349Z,90964.19
2023-04-16T07:26:06.702Z,90960.97
2023-04-16T07:29:10.326Z,90971.47
2023-04-16T07:32:15.439Z,90969.25
2023-04-16T07:35:18.993Z,90967.31
2023-04-16T07:38:22.304Z,90973.44
2023-04-16T07:41:25.966Z,90979.66
2023-04-16T07:44:29.160Z,90984.81
2023-04-16T07:47:32.393Z,90985.84
2023-04-16T07:50:35.657Z,90986.25
2023-04-16T07:53:39.220Z,90983.91
2023-04-16T07:56:42.444Z,90990.97
2023-04-16T07:59:45.585Z,90991.78
2023-04-16T08:02:49.511Z,91008.72
2023-04-16T08:05:52.924Z,91009.19
2023-04-16T08:08:56.932Z,91019.97
2023-04-16T08:12:01.697Z,91021.03
2023-04-16T08:15:05.522Z,91017.75
2023-04-16T08:18:13.650Z,91028.63
2023-04-16T08:21:16.938Z,91018.34
2023-04-16T08:24:20.336Z,91016.59
2023-04-16T08:27:23.763Z,91026.34
2023-04-16T08:30:27.270Z,91025.50
2023-04-16T08:33:33.004Z,91029.09
2023-04-16T08:36:36.352Z,91029.75
2023-04-16T08:39:39.942Z,91017.66
2023-04-16T08:42:47.090Z,91025.03
2023-04-16T08:45:51.766Z,91024.84
2023-04-16T08:48:58.837Z,91026.47
2023-04-16T08:52:09.019Z,91029.41
2023-04-16T08:55:17.086Z,91040.09
2023-04-16T08:58:23.062Z,91027.88
2023-04-16T09:01:27.595Z,91032.88
2023-04-16T09:04:30.953Z,91047.22
2023-04-16T09:07:35.634Z,91053.53
2023-04-16T09:10:38.764Z,91063.31
2023-04-16T09:13:41.963Z,91055.03
2023-04-16T09:16:49.807Z,91055.75
2023-04-16T09:19:53.054Z,91055.38
2023-04-16T09:23:05.867Z,91067.19
2023-04-16T09:26:12.036Z,91072.34
2023-04-16T09:29:38.287Z,91070.22
2023-04-16T09:32:41.829Z,91081.50
2023-04-16T09:35:49.968Z,91082.13
2023-04-16T09:38:57.419Z,91084.44
2023-04-16T09:42:03.247Z,91086.66
2023-04-16T09:45:07.327Z,91087.41
2023-04-16T09:48:10.521Z,91090.78
2023-04-16T09:51:14.348Z,91079.22
2023-04-16T09:54:17.797Z,91089.09
2023-04-16T09:57:23.238Z,91093.69
2023-04-16T10:00:26.518Z,91092.53
2023-04-16T10:03:34.905Z,91101.00
2023-04-16T10:06:38.350Z,91094.66
2023-04-16T10:09:42.369Z,91090.09
2023-04-16T10:12:45.586Z,91092.13
2023-04-16T10:15:49.474Z,91088.22
2023-04-16T10:18:54.142Z,91094.84
2023-04-16T10:21:58.832Z,91093.00
2023-04-16T10:25:02.589Z,91089.94
2023-04-16T10:28:06.685Z,91098.72
2023-04-16T10:31:13.648Z,91112.69
2023-04-16T10:34:17.658Z,91106.34
2023-04-16T10:37:20.962Z,91115.13
2023-04-16T10:40:28.676Z,91117.88
2023-04-16T10:43:34.014Z,91121.31
2023-04-16T10:46:44.800Z,91122.19
2023-04-16T10:49:48.966Z,91124.38
2023-04-16T10:53:18.986Z,91130.44
2023-04-16T10:56:28.542Z,91132.03
2023-04-16T10:59:35.974Z,91136.91
2023-04-16T11:02:42.349Z,91140.44
2023-04-16T11:05:48.778Z,91140.75
2023-04-16T11:08:55.571Z,91152.81
2023-04-16T11:11:59.513Z,91153.69
2023-04-16T11:15:02.806Z,91160.41
2023-04-16T11:18:07.607Z,91160.00
2023-04-16T11:21:13.416Z,91166.63
2023-04-16T11:24:16.887Z,91168.78
2023-04-16T11:27:20.116Z,91170.28
2023-04-16T11:30:40.155Z,91176.25
2023-04-16T11:33:44.069Z,91181.00
2023-04-16T11:36:48.667Z,91182.47
2023-04-16T11:39:53.694Z,91197.53
2023-04-16T11:42:58.109Z,91200.34
2023-04-16T11:46:20.052Z,91207.56
2023-04-16T11:49:33.725Z,91212.22
2023-04-16T11:52:37.047Z,91225.38
2023-04-16T11:55:46.519Z,91239.03
2023-04-16T11:59:14.001Z,91249.53
2023-04-16T12:02:17.579Z,91252.88
2023-04-16T12:05:29.224Z,91267.88
2023-04-16T12:08:32.492Z,91274.53
2023-04-16T12:11:42.550Z,91273.94
2023-04-16T12:14:52.483Z,91285.72
2023-04-16T12:18:08.721Z,91284.50
2023-04-16T12:21:12.203Z,91294.97
2023-04-16T12:24:17.643Z,91301.50
2023-04-16T12:27:20.885Z,91306.09
2023-04-16T12:30:26.744Z,91314.56
2023-04-16T12:33:30.315Z,91315.28
2023-04-16T12:36:33.748Z,91320.53
2023-04-16T12:39:37.040Z,91327.06
2023-04-16T12:42:40.265Z,91336.22
2023-04-16T12:45:43.442Z,91331.13
2023-04-16T12:48:46.805Z,91346.75
2023-04-16T12:51:50.257Z,91345.47
2023-04-16T12:54:54.064Z,91344.88
2023-04-16T12:57:57.241Z,91351.41
2023-04-16T13:01:00.683Z,91359.88
2023-04-16T13:04:04.503Z,91368.34
2023-04-16T13:07:07.728Z,91367.72
2023-04-16T13:10:11.563Z,91361.88
2023-04-16T13:13:14.810Z,91372.25
2023-04-16T13:16:18.118Z,91371.00
2023-04-16T13:19:21.862Z,91378.13
2023-04-16T13:22:25.298Z,91376.22
2023-04-16T13:25:28.598Z,91378.16
2023-04-16T13:28:32.057Z,91384.00
2023-04-16T13:31:35.426Z,91381.41
2023-04-16T13:34:38.629Z,91378.19
2023-04-16T13:37:42.070Z,91375.66
2023-04-16T13:40:45.485Z,91381.53
2023-04-16T13:43:48.862Z,91381.56
2023-04-16T13:46:52.446Z,91386.78
2023-04-16T13:49:55.668Z,91382.25
2023-04-16T13:52:58.943Z,91386.22
2023-04-16T13:56:04.295Z,91388.84
2023-04-16T13:59:08.095Z,91386.94
2023-04-16T14:02:12.514Z,91399.91
2023-04-16T14:05:16.192Z,91399.31
2023-04-16T14:08:21.989Z,91409.03
2023-04-16T14:11:25.109Z,91414.22
2023-04-16T14:14:28.309Z,91408.41
2023-04-16T14:17:31.680Z,91410.97
2023-04-16T14:20:34.915Z,91410.97
2023-04-16T14:23:38.114Z,91412.28
2023-04-16T14:26:41.349Z,91414.91
2023-04-16T14:29:47.028Z,91407.13
2023-04-16T14:32:50.813Z,91419.44
2023-04-16T14:35:54.227Z,91417.50
2023-04-16T14:38:57.482Z,91412.34
2023-04-16T14:42:00.960Z,91422.72
2023-04-16T14:45:07.195Z,91421.41
2023-04-16T14:48:14.719Z,91429.22
2023-04-16T14:51:20.628Z,91426.66
2023-04-16T14:54:23.818Z,91433.75
2023-04-16T14:57:27.469Z,91430.53
2023-04-16T15:00:31.041Z,91449.94
2023-04-16T15:03:34.561Z,91449.91
2023-04-16T15:06:38.228Z,91449.25
2023-04-16T15:09:41.651Z,91453.81
2023-04-16T15:12:45.024Z,91452.53
2023-04-16T15:15:48.399Z,91462.19
2023-04-16T15:18:51.862Z,91471.25
2023-04-16T15:21:56.496Z,91469.28
2023-04-16T15:24:59.553Z,91478.94
2023-04-16T15:28:03.316Z,91480.22
2023-04-16T15:31:07.241Z,91487.31
2023-04-16T15:34:10.859Z,91484.69
2023-04-16T15:37:14.263Z,91502.75
2023-04-16T15:40:19.425Z,91502.72
2023-04-16T15:43:22.574Z,91508.53
2023-04-16T15:46:25.722Z,91515.63
2023-04-16T15:49:29.077Z,91519.47
2023-04-16T15:52:32.305Z,91516.91
2023-04-16T15:55:36.472Z,91523.97
2023-04-16T15:58:39.771Z,91536.22
2023-04-16T16:01:43.066Z,91529.75
2023-04-16T16:04:46.854Z,91540.06
2023-04-16T16:07:50.514Z,91531.66
2023-04-16T16:10:53.899Z,91531.00
2023-04-16T16:13:57.286Z,91540.03
2023-04-16T16:17:00.582Z,91538.13
2023-04-16T16:20:04.766Z,91542.59
2023-04-16T16:23:08.306Z,91545.81
2023-04-16T16:26:13.715Z,91553.50
2023-04-16T16:29:16.906Z,91563.78
2023-04-16T16:32:20.240Z,91563.06
2023-04-16T16:35:23.524Z,91564.34
2023-04-16T16:38:26.962Z,91558.53
2023-04-16T16:41:30.081Z,91566.94
2023-04-16T16:44:33.210Z,91581.13
2023-04-16T16:47:36.405Z,91579.13
2023-04-16T16:50:39.619Z,91591.91
2023-04-16T16:53:42.739Z,91600.09
2023-04-16T16:56:45.917Z,91592.25
2023-04-16T16:59:49.241Z,91601.88
2023-04-16T17:02:52.891Z,91603.16
2023-04-16T17:05:56.095Z,91601.28
2023-04-16T17:08:59.201Z,91609.72
2023-04-16T17:12:02.568Z,91609.13
2023-04-16T17:15:05.952Z,91616.88
2023-04-16T17:18:09.094Z,91623.38
2023-04-16T17:21:12.409Z,91627.31
2023-04-16T17:24:15.696Z,91631.88
2023-04-16T17:27:18.948Z,91631.25
2023-04-16T17:30:24.364Z,91629.94
2023-04-16T17:33:27.788Z,91635.78
2023-04-16T17:36:31.979Z,91639.00
2023-04-16T17:39:35.120Z,91642.88
2023-04-16T17:42:38.454Z,91643.53
2023-04-16T17:45:41.774Z,91644.84
2023-04-16T17:48:44.990Z,91646.75
2023-04-16T17:51:48.154Z,91655.13
2023-04-16T17:54:51.452Z,91654.44
2023-04-16T17:57:54.562Z,91654.41
2023-04-16T18:00:57.727Z,91645.31
2023-04-16T18:04:01.190Z,91650.41
2023-04-16T18:07:04.577Z,91653.56
2023-04-16T18:10:08.629Z,91667.03
2023-04-16T18:13:11.927Z,91659.91
2023-04-16T18:16:18.627Z,91659.25
2023-04-16T18:19:21.982Z,91666.94
2023-04-16T18:22:27.385Z,91668.81
2023-04-16T18:25:34.980Z,91679.06
2023-04-16T18:28:38.456Z,91680.31
2023-04-16T18:31:42.017Z,91680.25
2023-04-16T18:34:45.600Z,91696.94
2023-04-16T18:37:48.701Z,91691.75
2023-04-16T18:40:51.877Z,91696.84
2023-04-16T18:43:55.072Z,91697.47
2023-04-16T18:46:58.295Z,91705.09
2023-04-16T18:50:01.596Z,91699.88
2023-04-16T18:53:04.734Z,91701.16
2023-04-16T18:56:07.954Z,91702.41
2023-04-16T18:59:11.577Z,91698.53
2023-04-16T19:02:15.136Z,91699.09
2023-04-16T19:05:19.263Z,91711.22
2023-04-16T19:08:22.784Z,91718.25
2023-04-16T19:11:25.984Z,91723.97
2023-04-16T19:14:29.262Z,91720.00
2023-04-16T19:17:32.521Z,91726.31
2023-04-16T19:20:36.333Z,91731.41
2023-04-16T19:23:39.476Z,91742.94
2023-04-16T19:26:42.677Z,91739.03
2023-04-16T19:29:47.467Z,91746.06
2023-04-16T19:32:50.335Z,91749.94
2023-04-16T19:35:53.636Z,91748.53
2023-04-16T19:38:56.772Z,91754.88
2023-04-16T19:42:00.186Z,91753.50
2023-04-16T19:45:04.028Z,91758.59
2023-04-16T19:48:07.474Z,91761.72
2023-04-16T19:51:10.851Z,91764.25
2023-04-16T19:54:14.056Z,91773.19
2023-04-16T19:57:17.349Z,91762.19
2023-04-16T20:00:21.675Z,91769.22
2023-04-16T20:03:27.091Z,91770.38
2023-04-16T20:06:30.412Z,91774.16
2023-04-16T20:09:33.631Z,91767.00
2023-04-16T20:12:38.670Z,91766.28
2023-04-16T20:15:41.808Z,91777.81
2023-04-16T20:18:46.639Z,91787.38
2023-04-16T20:21:49.446Z,91791.22
2023-04-16T20:24:55.716Z,91793.03
2023-04-16T20:27:58.839Z,91790.94
2023-04-16T20:31:02.245Z,91789.59
2023-04-16T20:34:08.187Z,91801.69
2023-04-16T20:37:11.391Z,91797.13
2023-04-16T20:40:15.761Z,91796.41
2023-04-16T20:43:19.438Z,91805.97
2023-04-16T20:46:25.931Z,91817.50
2023-04-16T20:49:30.771Z,91816.78
2023-04-16T20:52:34.212Z,91821.25
2023-04-16T20:55:38.725Z,91825.72
2023-04-16T20:58:42.676Z,91834.09
2023-04-16T21:01:45.996Z,91837.91
2023-04-16T21:04:49.233Z,91841.19
2023-04-16T21:07:55.321Z,91852.72
2023-04-16T21:10:59.037Z,91859.06
2023-04-16T21:14:05.781Z,91853.22
2023-04-16T21:17:09.053Z,91861.63
2023-04-16T21:20:14.309Z,91862.19
2023-04-16T21:23:18.016Z,91875.00
2023-04-16T21:26:21.715Z,91871.75
2023-04-16T21:29:24.983Z,91873.06
2023-04-16T21:32:28.226Z,91890.41
2023-04-16T21:35:34.685Z,91886.53
2023-04-16T21:38:38.036Z,91910.97
2023-04-16T21:41:41.216Z,91915.50
2023-04-16T21:44:44.367Z,91932.84
2023-04-16T21:47:47.661Z,91939.34
2023-04-16T21:51:12.999Z,91940.13
2023-04-16T21:54:18.719Z,91942.13
2023-04-16T21:57:22.084Z,91942.03
2023-04-16T22:00:25.607Z,91936.63
2023-04-16T22:03:31.860Z,91939.09
2023-04-16T22:06:35.428Z,91944.13
2023-04-16T22:09:39.662Z,91940.91
2023-04-16T22:12:45.459Z,91943.47
2023-04-16T22:15:48.584Z,91946.25
2023-04-16T22:18:52.146Z,91946.44
2023-04-16T22:21:55.429Z,91946.78
2023-04-16T22:24:58.598Z,91949.41
2023-04-16T22:28:02.898Z,91956.00
2023-04-16T22:31:06.172Z,91957.50
2023-04-16T22:34:09.517Z,91961.78
2023-04-16T22:37:12.676Z,91954.16
2023-04-16T22:40:16.430Z,91952.38
2023-04-16T22:43:21.782Z,91948.00
2023-04-16T22:46:26.805Z,91946.13
2023-04-16T22:49:33.745Z,91950.22
2023-04-16T22:52:39.561Z,91949.41
2023-04-16T22:55:43.076Z,91954.47
2023-04-16T22:58:48.369Z,91961.22
2023-04-16T23:01:52.421Z,91970.84
2023-04-16T23:04:56.059Z,91975.75
2023-04-16T23:07:59.678Z,91985.78
2023-04-16T23:11:09.649Z,91991.34
2023-04-16T23:14:19.286Z,91992.69
2023-04-16T23:17:26.269Z,92002.22
2023-04-16T23:20:32.723Z,92011.75
2023-04-16T23:23:36.246Z,92022.78
2023-04-16T23:26:41.771Z,92022.41
2023-04-16T23:29:47.244Z,92028.69
2023-04-16T23:32:50.799Z,92032.53
2023-04-16T23:35:54.046Z,92030.56
2023-04-16T23:38:59.993Z,92040.06
2023-04-16T23:42:03.345Z,92036.75
2023-04-16T23:45:06.834Z,92035.91
2023-04-16T23:48:10.158Z,92039.81
2023-04-16T23:51:13.398Z,92045.16
2023-04-16T23:54:16.806Z,92045.41
2023-04-16T23:57:19.907Z,92052.75
